createdAt,value
2022-12-01T00:00:29.854Z,20.02
2022-12-01T00:02:57.110Z,20.77
2022-12-01T00:05:24.447Z,19.95
2022-12-01T00:07:51.638Z,21.48
2022-12-01T00:10:28.537Z,19.88
2022-12-01T00:12:55.899Z,20.65
2022-12-01T00:15:24.059Z,19.40
2022-12-01T00:17:51.296Z,19.80
2022-12-01T00:20:18.901Z,19.50
2022-12-01T00:22:46.450Z,19.05
2022-12-01T00:25:14.442Z,18.23
2022-12-01T00:27:41.603Z,18.27
2022-12-01T00:30:10.314Z,18.23
2022-12-01T00:32:37.534Z,17.00
2022-12-01T00:35:05.371Z,17.90
2022-12-01T00:37:33.590Z,17.35
2022-12-01T00:40:00.808Z,17.50
2022-12-01T00:42:28.400Z,17.13
2022-12-01T00:44:55.550Z,17.35
2022-12-01T00:47:22.711Z,16.75
2022-12-01T00:49:50.120Z,17.63
2022-12-01T00:52:17.706Z,17.35
2022-12-01T00:54:45.030Z,16.15
2022-12-01T00:57:12.548Z,16.80
2022-12-01T00:59:39.774Z,16.58
2022-12-01T01:02:08.086Z,16.38
2022-12-01T01:04:35.845Z,14.82
2022-12-01T01:07:03.129Z,15.77
2022-12-01T01:09:31.684Z,15.30
2022-12-01T01:11:58.939Z,16.15
2022-12-01T01:14:26.214Z,15.68
2022-12-01T01:16:54.402Z,15.95
2022-12-01T01:19:21.579Z,15.43
2022-12-01T01:21:48.696Z,15.98
2022-12-01T01:24:15.850Z,14.40
2022-12-01T01:26:43.003Z,15.30
2022-12-01T01:29:11.186Z,14.38
2022-12-01T01:31:38.574Z,15.35
2022-12-01T01:34:05.852Z,14.45
2022-12-01T01:36:33.153Z,14.50
2022-12-01T01:39:01.593Z,14.93
2022-12-01T01:41:29.228Z,13.05
2022-12-01T01:44:01.844Z,14.00
2022-12-01T01:46:32.848Z,15.02
2022-12-01T01:49:05.482Z,14.15
2022-12-01T01:51:41.852Z,15.00
2022-12-01T01:54:15.650Z,14.82
2022-12-01T01:56:44.335Z,13.95
2022-12-01T01:59:14.069Z,12.68
2022-12-01T02:01:41.278Z,13.68
2022-12-01T02:04:08.479Z,12.85
2022-12-01T02:06:35.621Z,13.13
2022-12-01T02:09:02.817Z,13.10
2022-12-01T02:11:48.961Z,13.13
2022-12-01T02:14:40.480Z,13.43
2022-12-01T02:17:26.600Z,12.68
2022-12-01T02:20:11.299Z,12.07
2022-12-01T02:22:54.113Z,12.48
2022-12-01T02:25:22.891Z,11.52
2022-12-01T02:28:11.691Z,11.48
2022-12-01T02:30:41.724Z,12.13
2022-12-01T02:33:15.978Z,12.18
2022-12-01T02:35:48.959Z,11.45
2022-12-01T02:38:28.140Z,12.18
2022-12-01T02:40:59.416Z,11.45
2022-12-01T02:43:34.115Z,11.68
2022-12-01T02:46:13.572Z,12.82
2022-12-01T02:48:43.040Z,10.73
2022-12-01T02:51:12.565Z,12.20
2022-12-01T02:53:39.820Z,11.10
2022-12-01T02:56:08.078Z,10.38
2022-12-01T02:58:35.285Z,11.13
2022-12-01T03:01:08.440Z,11.32
2022-12-01T03:03:45.121Z,10.73
2022-12-01T03:06:16.708Z,9.63
2022-12-01T03:08:45.996Z,10.45
2022-12-01T03:11:27.135Z,11.27
2022-12-01T03:14:15.322Z,11.07
2022-12-01T03:16:55.090Z,10.88
2022-12-01T03:19:25.376Z,11.25
2022-12-01T03:21:59.066Z,9.57
2022-12-01T03:24:29.391Z,10.13
2022-12-01T03:26:57.861Z,9.93
2022-12-01T03:29:31.120Z,10.10
2022-12-01T03:32:07.493Z,10.18
2022-12-01T03:34:40.538Z,10.00
2022-12-01T03:37:09.994Z,9.82
2022-12-01T03:39:38.808Z,9.07
2022-12-01T03:42:22.073Z,9.45
2022-12-01T03:44:51.427Z,9.95
2022-12-01T03:47:21.609Z,9.88
2022-12-01T03:49:50.674Z,9.05
2022-12-01T03:52:28.408Z,9.82
2022-12-01T03:54:58.571Z,9.07
2022-12-01T03:57:36.446Z,8.88
2022-12-01T04:00:04.436Z,9.75
2022-12-01T04:02:31.944Z,8.82
2022-12-01T04:04:59.119Z,8.13
2022-12-01T04:07:26.305Z,9.10
2022-12-01T04:09:53.483Z,8.88
2022-12-01T04:12:29.980Z,8.75
2022-12-01T04:14:58.204Z,8.20
2022-12-01T04:17:25.705Z,8.45
2022-12-01T04:19:52.898Z,9.10
2022-12-01T04:22:20.130Z,7.90
2022-12-01T04:24:47.560Z,8.15
2022-12-01T04:27:14.941Z,8.57
2022-12-01T04:29:42.116Z,7.88
2022-12-01T04:32:09.339Z,8.25
2022-12-01T04:34:36.555Z,8.02
2022-12-01T04:37:04.631Z,8.38
2022-12-01T04:39:31.789Z,8.30
2022-12-01T04:41:58.926Z,8.43
2022-12-01T04:44:28.960Z,8.27
2022-12-01T04:47:00.323Z,7.53
2022-12-01T04:49:27.674Z,7.65
2022-12-01T04:51:54.919Z,8.63
2022-12-01T04:54:22.380Z,7.57
2022-12-01T04:56:49.605Z,8.07
2022-12-01T04:59:16.777Z,7.35
2022-12-01T05:01:44.716Z,7.78
2022-12-01T05:04:15.668Z,7.78
2022-12-01T05:06:43.217Z,7.90
2022-12-01T05:09:16.896Z,7.35
2022-12-01T05:11:45.033Z,7.03
2022-12-01T05:14:12.159Z,7.05
2022-12-01T05:16:39.499Z,6.97
2022-12-01T05:19:25.767Z,7.72
2022-12-01T05:21:53.087Z,7.32
2022-12-01T05:24:21.065Z,7.32
2022-12-01T05:26:48.640Z,7.18
2022-12-01T05:29:16.043Z,7.47
2022-12-01T05:31:43.271Z,6.95
2022-12-01T05:34:10.513Z,7.43
2022-12-01T05:36:37.668Z,7.40
2022-12-01T05:39:05.326Z,6.63
2022-12-01T05:41:32.528Z,7.25
2022-12-01T05:43:59.786Z,7.28
2022-12-01T05:46:27.083Z,6.68
2022-12-01T05:48:54.270Z,6.18
2022-12-01T05:51:21.413Z,6.22
2022-12-01T05:53:48.583Z,6.53
2022-12-01T05:56:15.780Z,6.85
2022-12-01T05:58:42.980Z,7.03
2022-12-01T06:01:10.756Z,6.55
2022-12-01T06:03:37.944Z,6.93
2022-12-01T06:06:05.207Z,7.03
2022-12-01T06:08:32.355Z,7.03
2022-12-01T06:10:59.561Z,6.57
2022-12-01T06:13:26.849Z,6.55
2022-12-01T06:16:01.013Z,6.65
2022-12-01T06:18:28.299Z,6.65
2022-12-01T06:20:55.474Z,7.13
2022-12-01T06:23:26.317Z,7.78
2022-12-01T06:25:56.108Z,6.88
2022-12-01T06:28:23.279Z,7.13
2022-12-01T06:30:50.455Z,7.10
2022-12-01T06:33:18.178Z,7.05
2022-12-01T06:35:45.328Z,6.45
2022-12-01T06:38:12.648Z,6.53
2022-12-01T06:40:42.723Z,6.22
2022-12-01T06:43:09.847Z,6.57
2022-12-01T06:45:37.132Z,6.82
2022-12-01T06:48:04.468Z,6.35
2022-12-01T06:50:31.634Z,6.78
2022-12-01T06:52:59.421Z,7.00
2022-12-01T06:55:26.936Z,6.85
2022-12-01T06:57:54.711Z,6.75
2022-12-01T07:00:22.691Z,7.30
2022-12-01T07:02:49.895Z,6.40
2022-12-01T07:05:17.282Z,6.30
2022-12-01T07:07:44.927Z,7.20
2022-12-01T07:10:13.259Z,6.45
2022-12-01T07:12:40.779Z,7.00
2022-12-01T07:15:09.173Z,6.70
2022-12-01T07:17:36.752Z,6.32
2022-12-01T07:20:04.162Z,6.90
2022-12-01T07:22:33.005Z,7.22
2022-12-01T07:25:00.354Z,7.63
2022-12-01T07:27:29.988Z,7.00
2022-12-01T07:29:57.097Z,7.20
2022-12-01T07:32:24.462Z,6.90
2022-12-01T07:34:51.579Z,6.50
2022-12-01T07:37:18.747Z,7.03
2022-12-01T07:39:45.973Z,6.82
2022-12-01T07:42:13.102Z,6.88
2022-12-01T07:44:40.252Z,7.60
2022-12-01T07:47:07.694Z,6.90
2022-12-01T07:49:34.839Z,6.82
2022-12-01T07:52:02.185Z,6.53
2022-12-01T07:54:29.382Z,6.63
2022-12-01T07:56:56.468Z,6.93
2022-12-01T07:59:23.687Z,7.85
2022-12-01T08:01:50.917Z,6.53
2022-12-01T08:04:18.158Z,7.03
2022-12-01T08:06:45.319Z,6.60
2022-12-01T08:09:12.453Z,7.95
2022-12-01T08:11:39.688Z,6.80
2022-12-01T08:14:06.858Z,6.47
2022-12-01T08:16:34.117Z,6.72
2022-12-01T08:19:01.294Z,6.28
2022-12-01T08:21:28.446Z,6.82
2022-12-01T08:23:56.552Z,6.30
2022-12-01T08:26:24.385Z,6.50
2022-12-01T08:28:51.724Z,6.45
2022-12-01T08:31:19.015Z,6.13
2022-12-01T08:33:46.619Z,6.97
2022-12-01T08:36:13.847Z,6.40
2022-12-01T08:38:43.647Z,6.28
2022-12-01T08:41:11.514Z,6.20
2022-12-01T08:43:57.348Z,5.82
2022-12-01T08:46:29.669Z,6.07
2022-12-01T08:48:57.633Z,6.63
2022-12-01T08:51:25.225Z,6.20
2022-12-01T08:53:52.354Z,8.55
2022-12-01T08:56:19.535Z,6.97
2022-12-01T08:58:46.915Z,6.78
2022-12-01T09:01:15.824Z,6.78
2022-12-01T09:03:43.441Z,6.32
2022-12-01T09:06:15.246Z,6.60
2022-12-01T09:08:42.682Z,6.75
2022-12-01T09:11:19.623Z,6.70
2022-12-01T09:13:52.963Z,6.97
2022-12-01T09:16:21.911Z,6.60
2022-12-01T09:18:49.463Z,6.47
2022-12-01T09:21:17.914Z,6.80
2022-12-01T09:23:45.435Z,6.72
2022-12-01T09:26:13.968Z,6.63
2022-12-01T09:28:41.295Z,6.85
2022-12-01T09:31:09.489Z,6.57
2022-12-01T09:33:36.935Z,6.68
2022-12-01T09:36:04.850Z,6.57
2022-12-01T09:38:32.961Z,6.50
2022-12-01T09:41:20.772Z,6.55
2022-12-01T09:43:51.137Z,6.10
2022-12-01T09:46:21.446Z,6.20
2022-12-01T09:48:50.237Z,6.80
2022-12-01T09:51:24.734Z,6.60
2022-12-01T09:53:53.620Z,5.82
2022-12-01T09:56:22.349Z,6.22
2022-12-01T09:58:55.534Z,6.55
2022-12-01T10:01:27.503Z,6.57
2022-12-01T10:03:57.900Z,6.13
2022-12-01T10:06:39.348Z,6.05
2022-12-01T10:09:15.584Z,6.38
2022-12-01T10:11:44.790Z,6.70
2022-12-01T10:14:20.419Z,6.95
2022-12-01T10:17:00.168Z,7.78
2022-12-01T10:19:46.457Z,7.40
2022-12-01T10:22:32.191Z,7.43
2022-12-01T10:25:06.519Z,8.35
2022-12-01T10:27:55.438Z,7.63
2022-12-01T10:30:23.848Z,7.32
2022-12-01T10:32:56.187Z,7.68
2022-12-01T10:35:24.991Z,8.05
2022-12-01T10:37:55.586Z,7.10
2022-12-01T10:40:23.325Z,6.72
2022-12-01T10:42:51.687Z,7.93
2022-12-01T10:45:22.648Z,7.72
2022-12-01T10:48:08.690Z,6.70
2022-12-01T10:50:36.318Z,7.40
2022-12-01T10:53:03.790Z,7.28
2022-12-01T10:55:32.852Z,7.28
2022-12-01T10:58:06.190Z,7.72
2022-12-01T11:00:59.216Z,7.18
2022-12-01T11:03:34.726Z,6.97
2022-12-01T11:06:03.265Z,6.38
2022-12-01T11:08:30.450Z,7.32
2022-12-01T11:10:57.735Z,7.07
2022-12-01T11:13:28.365Z,7.03
2022-12-01T11:15:56.872Z,6.43
2022-12-01T11:18:32.906Z,7.10
2022-12-01T11:21:08.995Z,7.07
2022-12-01T11:23:37.322Z,6.55
2022-12-01T11:26:04.468Z,6.85
2022-12-01T11:28:32.323Z,6.18
2022-12-01T11:31:01.174Z,6.57
2022-12-01T11:33:28.902Z,7.25
2022-12-01T11:35:56.454Z,7.32
2022-12-01T11:38:29.842Z,5.88
2022-12-01T11:40:58.296Z,6.45
2022-12-01T11:43:27.412Z,6.47
2022-12-01T11:45:55.146Z,6.60
2022-12-01T11:48:26.831Z,5.97
2022-12-01T11:51:05.184Z,6.43
2022-12-01T11:53:39.828Z,6.53
2022-12-01T11:56:23.153Z,6.88
2022-12-01T11:58:52.308Z,5.60
2022-12-01T12:01:32.917Z,6.32
2022-12-01T12:04:09.334Z,6.88
2022-12-01T12:06:55.368Z,6.53
2022-12-01T12:09:28.885Z,6.40
2022-12-01T12:12:05.334Z,6.28
2022-12-01T12:14:39.313Z,5.85
2022-12-01T12:17:18.524Z,6.07
2022-12-01T12:20:18.044Z,5.82
2022-12-01T12:22:35.496Z,6.32
2022-12-01T12:25:25.584Z,6.10
2022-12-01T12:27:52.761Z,5.97
2022-12-01T12:30:22.056Z,6.28
2022-12-01T12:33:05.703Z,6.80
2022-12-01T12:35:41.797Z,6.10
2022-12-01T12:38:15.295Z,6.20
2022-12-01T12:40:42.658Z,5.63
2022-12-01T12:43:34.004Z,5.90
2022-12-01T12:46:27.555Z,6.68
2022-12-01T12:49:18.782Z,5.78
2022-12-01T12:51:48.447Z,5.82
2022-12-01T12:54:27.050Z,5.38
2022-12-01T12:57:05.514Z,6.18
2022-12-01T12:59:40.589Z,5.90
2022-12-01T13:02:19.073Z,6.18
2022-12-01T13:04:51.372Z,10.43
2022-12-01T13:07:38.349Z,12.77
2022-12-01T13:10:09.904Z,15.85
2022-12-01T13:12:40.202Z,53.65
2022-12-01T13:15:15.347Z,127.90
2022-12-01T13:17:44.806Z,233.43
2022-12-01T13:20:18.125Z,247.68
2022-12-01T13:22:46.053Z,176.55
2022-12-01T13:25:17.709Z,157.05
2022-12-01T13:27:45.562Z,180.30
2022-12-01T13:30:20.435Z,174.73
2022-12-01T13:32:48.051Z,170.70
2022-12-01T13:35:29.969Z,166.25
2022-12-01T13:38:12.566Z,159.45
2022-12-01T13:40:39.902Z,157.50
2022-12-01T13:43:15.445Z,153.30
2022-12-01T13:45:42.734Z,149.23
2022-12-01T13:48:29.806Z,148.07
2022-12-01T13:50:57.028Z,143.48
2022-12-01T13:53:24.150Z,140.77
2022-12-01T13:55:57.357Z,141.57
2022-12-01T13:58:26.376Z,134.98
2022-12-01T14:00:53.653Z,133.32
2022-12-01T14:03:20.928Z,129.32
2022-12-01T14:05:55.061Z,116.80
2022-12-01T14:08:35.452Z,124.50
2022-12-01T14:11:07.723Z,116.53
2022-12-01T14:13:47.161Z,112.00
2022-12-01T14:16:14.486Z,107.25
2022-12-01T14:18:50.123Z,116.15
2022-12-01T14:21:17.346Z,110.18
2022-12-01T14:24:07.593Z,106.53
2022-12-01T14:26:44.944Z,108.07
2022-12-01T14:29:25.541Z,107.45
2022-12-01T14:31:52.703Z,106.88
2022-12-01T14:34:24.476Z,107.28
2022-12-01T14:37:03.055Z,100.13
2022-12-01T14:39:37.979Z,102.45
2022-12-01T14:42:05.251Z,98.97
2022-12-01T14:44:36.429Z,104.00
2022-12-01T14:47:12.537Z,96.47
2022-12-01T14:49:58.259Z,93.85
2022-12-01T14:52:36.743Z,90.65
2022-12-01T14:55:05.783Z,92.75
2022-12-01T14:57:43.671Z,95.07
2022-12-01T15:00:15.188Z,86.65
2022-12-01T15:02:44.207Z,85.45
2022-12-01T15:05:16.081Z,85.72
2022-12-01T15:07:44.439Z,90.53
2022-12-01T15:10:23.941Z,88.05
2022-12-01T15:12:52.064Z,86.35
2022-12-01T15:15:24.463Z,84.45
2022-12-01T15:17:52.348Z,86.22
2022-12-01T15:20:29.848Z,87.15
2022-12-01T15:22:58.663Z,84.18
2022-12-01T15:25:26.683Z,84.82
2022-12-01T15:28:12.515Z,84.13
2022-12-01T15:30:41.384Z,80.65
2022-12-01T15:33:12.049Z,83.53
2022-12-01T15:35:41.610Z,78.97
2022-12-01T15:38:16.975Z,73.25
2022-12-01T15:41:27.816Z,73.45
2022-12-01T15:43:38.045Z,71.45
2022-12-01T15:46:25.644Z,74.95
2022-12-01T15:49:06.362Z,71.90
2022-12-01T15:51:33.533Z,71.50
2022-12-01T15:54:01.449Z,72.45
2022-12-01T15:56:33.403Z,76.45
2022-12-01T15:59:11.172Z,71.80
2022-12-01T16:01:39.087Z,71.45
2022-12-01T16:04:08.553Z,66.95
2022-12-01T16:06:37.087Z,62.20
2022-12-01T16:09:19.560Z,69.78
2022-12-01T16:12:06.063Z,65.20
2022-12-01T16:14:34.334Z,68.50
2022-12-01T16:17:01.733Z,70.85
2022-12-01T16:19:30.750Z,68.25
2022-12-01T16:22:00.646Z,62.83
2022-12-01T16:24:30.492Z,64.97
2022-12-01T16:27:08.226Z,66.85
2022-12-01T16:30:04.801Z,67.22
2022-12-01T16:32:34.237Z,63.42
2022-12-01T16:35:01.736Z,63.35
2022-12-01T16:37:29.247Z,64.07
2022-12-01T16:39:56.421Z,63.45
2022-12-01T16:42:23.593Z,63.25
2022-12-01T16:44:51.582Z,61.10
2022-12-01T16:47:21.076Z,59.20
2022-12-01T16:49:48.493Z,57.80
2022-12-01T16:52:43.165Z,60.13
2022-12-01T16:55:02.931Z,56.92
2022-12-01T16:57:30.176Z,57.50
2022-12-01T16:59:57.342Z,58.05
2022-12-01T17:02:24.595Z,55.38
2022-12-01T17:04:52.104Z,53.60
2022-12-01T17:07:19.499Z,54.83
2022-12-01T17:09:46.795Z,55.50
2022-12-01T17:12:14.059Z,51.20
2022-12-01T17:14:42.483Z,52.72
2022-12-01T17:17:09.921Z,54.45
2022-12-01T17:19:37.048Z,47.20
2022-12-01T17:22:04.152Z,49.88
2022-12-01T17:24:31.327Z,50.22
2022-12-01T17:26:58.581Z,45.95
2022-12-01T17:29:28.683Z,48.75
2022-12-01T17:31:55.854Z,48.83
2022-12-01T17:34:23.065Z,45.78
2022-12-01T17:36:51.687Z,48.95
2022-12-01T17:39:19.454Z,46.28
2022-12-01T17:41:46.615Z,45.13
2022-12-01T17:44:13.737Z,44.63
2022-12-01T17:46:42.052Z,44.72
2022-12-01T17:49:10.561Z,45.80
2022-12-01T17:51:37.834Z,46.08
2022-12-01T17:54:05.367Z,44.15
2022-12-01T17:56:32.592Z,42.97
2022-12-01T17:58:59.720Z,40.30
2022-12-01T18:01:30.348Z,43.55
2022-12-01T18:03:58.948Z,42.40
2022-12-01T18:06:26.930Z,43.17
2022-12-01T18:08:54.383Z,41.40
2022-12-01T18:11:22.853Z,41.50
2022-12-01T18:13:50.804Z,41.90
2022-12-01T18:16:19.670Z,41.53
2022-12-01T18:18:47.034Z,41.38
2022-12-01T18:21:15.467Z,40.20
2022-12-01T18:23:42.651Z,39.60
2022-12-01T18:26:15.785Z,38.45
2022-12-01T18:28:43.393Z,38.75
2022-12-01T18:31:12.323Z,37.67
2022-12-01T18:33:40.352Z,38.13
2022-12-01T18:36:12.849Z,38.17
2022-12-01T18:38:40.153Z,36.05
2022-12-01T18:41:09.702Z,34.40
2022-12-01T18:43:37.345Z,34.00
2022-12-01T18:46:05.430Z,31.00
2022-12-01T18:48:32.936Z,31.10
2022-12-01T18:51:04.698Z,30.38
2022-12-01T18:53:32.191Z,31.70
2022-12-01T18:56:03.584Z,32.75
2022-12-01T18:58:31.384Z,33.88
2022-12-01T19:00:58.949Z,33.72
2022-12-01T19:03:26.283Z,32.88
2022-12-01T19:05:53.452Z,33.40
2022-12-01T19:08:23.309Z,34.17
2022-12-01T19:11:03.526Z,32.25
2022-12-01T19:13:31.199Z,32.97
2022-12-01T19:15:58.482Z,32.53
2022-12-01T19:18:25.889Z,32.70
2022-12-01T19:20:53.060Z,33.05
2022-12-01T19:23:20.417Z,32.38
2022-12-01T19:25:47.657Z,30.40
2022-12-01T19:28:14.898Z,31.15
2022-12-01T19:30:47.946Z,31.35
2022-12-01T19:33:15.768Z,29.65
2022-12-01T19:35:42.923Z,26.50
2022-12-01T19:38:10.137Z,29.88
2022-12-01T19:40:38.640Z,28.83
2022-12-01T19:43:05.916Z,30.42
2022-12-01T19:45:35.279Z,26.00
2022-12-01T19:48:02.726Z,28.52
2022-12-01T19:50:29.962Z,28.80
2022-12-01T19:52:57.121Z,28.05
2022-12-01T19:55:24.341Z,28.48
2022-12-01T19:57:52.007Z,27.50
2022-12-01T20:00:21.856Z,28.08
2022-12-01T20:02:49.555Z,27.67
2022-12-01T20:05:16.898Z,27.02
2022-12-01T20:07:44.169Z,27.15
2022-12-01T20:10:11.581Z,27.27
2022-12-01T20:12:38.884Z,25.75
2022-12-01T20:15:08.616Z,25.60
2022-12-01T20:17:36.593Z,24.73
2022-12-01T20:20:04.219Z,24.75
2022-12-01T20:22:32.627Z,24.20
2022-12-01T20:24:59.913Z,25.15
2022-12-01T20:27:27.763Z,24.17
2022-12-01T20:29:55.017Z,24.67
2022-12-01T20:32:23.844Z,22.92
2022-12-01T20:34:51.414Z,22.75
2022-12-01T20:37:18.780Z,23.00
2022-12-01T20:39:46.054Z,23.23
2022-12-01T20:42:13.258Z,23.80
2022-12-01T20:44:40.603Z,22.58
2022-12-01T20:47:07.740Z,25.25
2022-12-01T20:49:34.944Z,22.88
2022-12-01T20:52:02.147Z,23.88
2022-12-01T20:54:30.315Z,22.73
2022-12-01T20:56:58.148Z,21.30
2022-12-01T20:59:25.302Z,22.50
2022-12-01T21:01:52.430Z,22.80
2022-12-01T21:04:19.709Z,20.50
2022-12-01T21:06:47.147Z,20.73
2022-12-01T21:09:15.075Z,22.63
2022-12-01T21:12:27.219Z,22.98
2022-12-01T21:15:02.724Z,29.75
2022-12-01T21:17:29.869Z,28.00
2022-12-01T21:20:01.499Z,26.35
2022-12-01T21:22:28.821Z,26.42
2022-12-01T21:25:01.739Z,26.17
2022-12-01T21:27:29.293Z,26.90
2022-12-01T21:29:56.479Z,25.70
2022-12-01T21:32:29.801Z,25.58
2022-12-01T21:35:00.684Z,25.35
2022-12-01T21:37:28.752Z,24.88
2022-12-01T21:39:57.333Z,23.85
2022-12-01T21:42:30.307Z,24.55
2022-12-01T21:44:57.833Z,25.52
2022-12-01T21:47:26.578Z,25.73
2022-12-01T21:49:54.786Z,22.65
2022-12-01T21:52:22.040Z,23.50
2022-12-01T21:54:49.717Z,22.23
2022-12-01T21:57:32.421Z,21.42
2022-12-01T22:00:19.532Z,24.33
2022-12-01T22:02:51.959Z,20.73
2022-12-01T22:05:31.164Z,22.35
2022-12-01T22:08:10.272Z,21.00
2022-12-01T22:10:53.242Z,20.13
2022-12-01T22:13:22.870Z,21.27
2022-12-01T22:15:50.061Z,21.15
2022-12-01T22:18:22.670Z,21.55
2022-12-01T22:20:49.844Z,20.38
2022-12-01T22:23:16.995Z,22.33
2022-12-01T22:25:44.165Z,21.05
2022-12-01T22:28:15.158Z,20.02
2022-12-01T22:30:44.119Z,20.88
2022-12-01T22:33:15.215Z,21.05
2022-12-01T22:35:43.934Z,20.55
2022-12-01T22:38:11.084Z,18.75
2022-12-01T22:40:43.658Z,20.17
2022-12-01T22:43:31.158Z,19.88
2022-12-01T22:46:02.385Z,18.77
2022-12-01T22:48:41.021Z,18.92
2022-12-01T22:51:14.124Z,18.25
2022-12-01T22:53:41.909Z,20.13
2022-12-01T22:56:18.113Z,17.85
2022-12-01T22:58:45.303Z,19.25
2022-12-01T23:01:21.005Z,18.92
2022-12-01T23:03:49.191Z,20.33
2022-12-01T23:06:34.856Z,20.00
2022-12-01T23:09:02.490Z,20.80
2022-12-01T23:11:29.866Z,19.58
2022-12-01T23:13:57.044Z,19.48
2022-12-01T23:16:24.488Z,19.75
2022-12-01T23:18:51.702Z,17.77
2022-12-01T23:21:18.863Z,19.17
2022-12-01T23:23:46.101Z,19.52
2022-12-01T23:26:13.278Z,19.63
2022-12-01T23:28:41.312Z,19.88
2022-12-01T23:31:09.752Z,18.90
2022-12-01T23:33:37.305Z,18.92
2022-12-01T23:36:04.396Z,18.58
2022-12-01T23:38:47.559Z,18.63
2022-12-01T23:41:20.372Z,17.02
2022-12-01T23:43:49.864Z,17.85
2022-12-01T23:46:21.654Z,17.73
2022-12-01T23:48:57.222Z,18.05
2022-12-01T23:51:39.009Z,17.48
2022-12-01T23:54:26.987Z,18.08
2022-12-01T23:56:55.977Z,16.25
2022-12-01T23:59:23.328Z,17.05
